Time;durP1;ratioP1;P1;durP2;ratioP2;P2;SDS_P1;SDS_P2;PMS_P1;PMS_P2;Temp;Humidity;BMP_temperature;BMP_pressure;BME280_temperature;BME280_humidity;BME280_pressure;Samples;Min_cycle;Max_cycle;Signal;HPM_P1;HPM_P2
2021/06/15 00:02:18;;;;;;;21.80;9.80;;;;;;;18.98;70.84;99129.81;4921599;29;20059;-66
2021/06/15 00:04:44;;;;;;;16.97;8.90;;;;;;;18.94;71.06;99139.16;4923142;29;20134;-66
2021/06/15 00:07:13;;;;;;;13.95;9.52;;;;;;;18.93;71.20;99132.00;4922723;29;20064;-68
2021/06/15 00:09:41;;;;;;;18.50;9.75;;;;;;;18.92;71.01;99133.94;4938711;29;20060;-67
2021/06/15 00:12:11;;;;;;;17.30;9.30;;;;;;;18.93;70.94;99132.78;4923503;29;20047;-67
2021/06/15 00:14:40;;;;;;;18.17;9.68;;;;;;;18.94;70.58;99134.41;4923591;29;20523;-66
2021/06/15 00:17:06;;;;;;;16.88;9.82;;;;;;;18.79;70.70;99113.78;4922621;29;20055;-68
2021/06/15 00:19:33;;;;;;;15.57;9.80;;;;;;;18.89;70.58;99142.94;4923160;29;20512;-67
2021/06/15 00:22:03;;;;;;;17.40;9.95;;;;;;;18.88;70.74;99132.22;4923081;29;20485;-67
2021/06/15 00:24:29;;;;;;;15.98;9.88;;;;;;;18.83;70.60;99128.53;4937451;29;20469;-67
2021/06/15 00:26:57;;;;;;;18.48;9.70;;;;;;;18.84;70.45;99130.16;4923698;29;20079;-66
2021/06/15 00:29:23;;;;;;;14.50;9.13;;;;;;;18.84;70.79;99129.34;4922844;29;20074;-66
2021/06/15 00:31:49;;;;;;;15.52;8.45;;;;;;;18.84;70.67;99119.06;4938213;29;20055;-66
2021/06/15 00:34:16;;;;;;;17.40;8.82;;;;;;;18.88;70.37;99130.25;4938503;28;20135;-66
2021/06/15 00:36:46;;;;;;;;;;;;;;;18.89;70.63;99131.06;4924097;29;20052;-66
2021/06/15 00:39:15;;;;;;;18.80;9.35;;;;;;;18.90;70.25;99129.94;4923019;29;19933;-66
2021/06/15 00:41:45;;;;;;;21.38;9.80;;;;;;;18.87;70.83;99130.59;4922155;29;20048;-66
2021/06/15 00:44:13;;;;;;;13.13;8.85;;;;;;;18.84;70.74;99127.38;4921802;29;20044;-66
2021/06/15 00:46:39;;;;;;;14.45;8.65;;;;;;;18.85;71.09;99120.69;4922579;29;20058;-65
2021/06/15 00:49:07;;;;;;;15.93;9.27;;;;;;;18.85;70.75;99126.22;4921779;29;20072;-67
2021/06/15 00:51:37;;;;;;;14.48;8.77;;;;;;;18.86;71.03;99129.81;4923306;29;20107;-67
2021/06/15 00:54:04;;;;;;;13.75;8.88;;;;;;;18.87;71.26;99119.53;4922101;29;20055;-65
2021/06/15 00:56:33;;;;;;;18.05;10.23;;;;;;;18.90;71.17;99125.19;4929745;29;20055;-67
2021/06/15 00:59:00;;;;;;;15.05;10.15;;;;;;;18.89;71.33;99120.81;4919687;29;20055;-66
2021/06/15 01:01:28;;;;;;;21.33;10.10;;;;;;;18.90;71.06;99124.38;4922334;29;20480;-67
2021/06/15 01:03:54;;;;;;;19.00;9.57;;;;;;;18.88;71.03;99118.38;4922396;29;20055;-68
2021/06/15 01:06:32;;;;;;;16.97;10.87;;;;;;;18.87;71.05;99119.53;4921351;29;20483;-68
2021/06/15 01:09:06;;;;;;;22.52;11.93;;;;;;;18.85;71.33;99117.13;4922047;29;20080;-67
2021/06/15 01:11:50;;;;;;;17.15;10.00;;;;;;;18.84;71.06;99115.50;4922987;29;20135;-67
2021/06/15 01:14:30;;;;;;;17.40;10.32;;;;;;;18.83;71.18;99119.44;4924425;29;21002;-68
2021/06/15 01:17:05;;;;;;;20.27;9.90;;;;;;;18.83;71.37;99117.44;4926326;29;20140;-66
2021/06/15 01:19:41;;;;;;;18.70;10.63;;;;;;;18.89;72.00;99125.50;4925926;29;20048;-66
2021/06/15 01:22:17;;;;;;;21.27;9.82;;;;;;;18.95;71.35;99119.41;4926227;29;20048;-67
2021/06/15 01:25:04;;;;;;;16.98;10.70;;;;;;;18.98;71.28;99118.72;4925840;29;20556;-66
2021/06/15 01:27:50;;;;;;;22.55;11.52;;;;;;;18.99;71.52;99120.38;4924683;29;20095;-66
2021/06/15 01:30:23;;;;;;;20.30;11.10;;;;;;;18.96;71.32;99121.00;4925465;29;20052;-66
2021/06/15 01:32:56;;;;;;;19.10;11.48;;;;;;;18.98;71.52;99118.72;4932173;29;20102;-67
2021/06/15 01:35:26;;;;;;;17.50;10.63;;;;;;;18.95;71.65;99115.84;4924631;29;20062;-66
2021/06/15 01:37:58;;;;;;;20.13;11.00;;;;;;;18.99;71.39;99114.81;4925585;29;20444;-65
2021/06/15 01:40:32;;;;;;;19.42;10.93;;;;;;;18.97;71.21;99106.03;4940723;29;20060;-66
2021/06/15 01:43:18;;;;;;;20.25;11.65;;;;;;;19.13;71.35;99110.88;4927011;29;20412;-68
2021/06/15 01:45:50;;;;;;;21.70;11.43;;;;;;;19.22;71.13;99121.84;4931916;29;20048;-69
2021/06/15 01:48:25;;;;;;;15.75;11.52;;;;;;;19.20;71.03;99110.25;4940036;29;20048;-69
2021/06/15 01:50:53;;;;;;;18.70;10.98;;;;;;;19.24;71.02;99125.06;4914106;29;20048;-68
2021/06/15 01:53:21;;;;;;;20.85;12.30;;;;;;;19.26;71.34;99120.75;4925740;29;20052;-67
2021/06/15 01:55:58;;;;;;;21.15;12.57;;;;;;;19.30;71.12;99120.09;4940588;29;20461;-68
2021/06/15 01:58:33;;;;;;;21.63;12.07;;;;;;;19.27;71.33;99118.81;4939786;28;20059;-68
2021/06/15 02:01:03;;;;;;;26.83;12.35;;;;;;;19.24;71.52;99113.97;4926097;29;20055;-68
2021/06/15 02:03:33;;;;;;;19.92;11.75;;;;;;;19.27;71.62;99125.13;4924426;29;20558;-68
2021/06/15 02:06:03;;;;;;;17.77;11.95;;;;;;;19.25;71.26;99127.47;4926204;29;20108;-68
2021/06/15 02:08:34;;;;;;;22.88;11.73;;;;;;;19.29;71.46;99116.50;4923773;29;20460;-67
2021/06/15 02:11:07;;;;;;;21.85;12.00;;;;;;;19.42;70.87;99115.31;4923286;29;20062;-68
2021/06/15 02:13:54;;;;;;;24.17;12.55;;;;;;;19.56;70.78;99114.09;4924162;29;20481;-67
2021/06/15 02:16:37;;;;;;;21.05;11.65;;;;;;;19.56;70.75;99114.09;4925850;29;20486;-68
2021/06/15 02:19:24;;;;;;;22.02;11.70;;;;;;;19.58;70.14;99114.56;4925023;29;20889;-68
2021/06/15 02:21:58;;;;;;;19.60;11.23;;;;;;;19.60;69.96;99111.44;4923041;29;20048;-68
2021/06/15 02:24:32;;;;;;;18.80;11.27;;;;;;;19.52;69.90;99088.25;4939643;29;20586;-69
2021/06/15 02:26:59;;;;;;;19.20;10.77;;;;;;;19.54;69.92;99099.78;4931850;29;20047;-68
2021/06/15 02:29:28;;;;;;;16.70;10.63;;;;;;;19.60;69.85;99108.66;4939652;29;20048;-68
2021/06/15 02:31:57;;;;;;;22.05;10.85;;;;;;;19.63;70.08;99110.72;4924006;29;20050;-68
2021/06/15 02:34:26;;;;;;;17.73;11.38;;;;;;;19.79;69.87;99111.56;4932638;29;20047;-69
2021/06/15 02:36:59;;;;;;;18.63;9.75;;;;;;;19.96;68.72;99115.22;4923653;29;20534;-67
2021/06/15 02:39:29;;;;;;;16.40;10.52;;;;;;;20.02;68.15;99111.03;4924142;29;20425;-66
2021/06/15 02:41:57;;;;;;;19.52;10.38;;;;;;;19.91;68.50;99118.22;4923077;29;20493;-67
2021/06/15 02:44:29;;;;;;;20.25;10.85;;;;;;;19.90;68.70;99106.31;4914612;29;20138;-67
2021/06/15 02:47:00;;;;;;;18.30;10.68;;;;;;;19.95;68.76;99103.31;4939881;29;20104;-67
2021/06/15 02:49:31;;;;;;;18.70;10.27;;;;;;;20.15;67.90;99102.63;4922054;29;20390;-67
2021/06/15 02:52:06;;;;;;;22.95;10.32;;;;;;;20.35;67.69;99098.78;4924332;29;20062;-67
2021/06/15 02:54:38;;;;;;;15.55;9.63;;;;;;;20.39;67.07;99099.69;4930832;29;20099;-67
2021/06/15 02:57:07;;;;;;;19.48;9.60;;;;;;;20.54;66.63;99100.84;4939066;29;20085;-68
2021/06/15 02:59:35;;;;;;;17.52;8.88;;;;;;;20.59;65.61;99099.75;4923733;29;20062;-68
2021/06/15 03:02:05;;;;;;;;;;;;;;;20.62;65.74;99101.03;4924091;28;20048;-67
2021/06/15 03:04:46;;;;;;;21.15;9.55;;;;;;;20.52;66.00;99102.34;4923936;29;19934;-68
2021/06/15 03:07:13;;;;;;;18.00;9.52;;;;;;;20.30;66.69;99096.28;4922779;29;20095;-68
2021/06/15 03:09:40;;;;;;;23.55;10.15;;;;;;;20.39;66.39;99109.97;4939185;29;20079;-69
2021/06/15 03:12:12;;;;;;;17.73;9.88;;;;;;;20.49;66.61;99108.63;4923166;29;20508;-69
2021/06/15 03:14:47;;;;;;;25.10;11.80;;;;;;;20.47;67.03;99099.84;4938583;29;20054;-69
2021/06/15 03:17:16;;;;;;;26.10;11.63;;;;;;;20.47;66.89;99100.69;4923658;29;20098;-68
2021/06/15 03:19:54;;;;;;;19.63;11.07;;;;;;;20.45;67.25;99103.00;4922523;29;20099;-68
2021/06/15 03:22:22;;;;;;;19.48;10.35;;;;;;;20.47;67.38;99106.22;4938852;29;20059;-68
2021/06/15 03:24:55;;;;;;;26.52;10.40;;;;;;;20.53;66.91;99099.22;4930218;29;20059;-68
2021/06/15 03:27:31;;;;;;;21.15;10.95;;;;;;;20.54;66.61;99103.63;4924104;29;20051;-68
2021/06/15 03:30:00;;;;;;;17.35;9.93;;;;;;;20.53;66.72;99099.22;4930034;29;20063;-68
2021/06/15 03:32:29;;;;;;;21.23;11.60;;;;;;;20.51;66.66;99098.78;4923444;29;20055;-68
2021/06/15 03:34:57;;;;;;;27.70;10.85;;;;;;;20.41;66.50;99096.53;4930306;29;20074;-67
2021/06/15 03:37:27;;;;;;;17.63;10.60;;;;;;;20.45;66.70;99100.22;4921742;29;20059;-68
2021/06/15 03:39:58;;;;;;;19.73;10.30;;;;;;;20.48;66.51;99101.47;4922146;29;20048;-68
2021/06/15 03:42:29;;;;;;;17.40;10.68;;;;;;;20.58;66.56;99111.22;4930122;29;20579;-67
2021/06/15 03:45:00;;;;;;;21.17;11.50;;;;;;;20.71;66.44;99115.50;4923469;29;21088;-67
2021/06/15 03:47:31;;;;;;;19.27;10.63;;;;;;;20.69;66.43;99110.34;4923192;29;20056;-67
2021/06/15 03:49:59;;;;;;;22.55;9.95;;;;;;;20.72;65.97;99108.78;4922901;29;20052;-68
2021/06/15 03:52:32;;;;;;;20.83;8.85;;;;;;;20.76;65.43;99106.94;4921634;29;20290;-66
2021/06/15 03:54:59;;;;;;;17.40;9.35;;;;;;;20.82;65.31;99113.84;4922403;29;20082;-68
2021/06/15 03:57:27;;;;;;;18.45;9.30;;;;;;;20.93;64.81;99100.19;4923319;29;20051;-68
2021/06/15 03:59:55;;;;;;;15.25;8.55;;;;;;;20.98;64.89;99115.78;4923557;29;20044;-66
2021/06/15 04:02:24;;;;;;;17.60;9.70;;;;;;;21.00;64.71;99115.44;4923680;29;20188;-68
2021/06/15 04:04:54;;;;;;;20.17;10.27;;;;;;;21.05;64.28;99117.91;4922735;29;20105;-68
2021/06/15 04:07:22;;;;;;;20.88;9.18;;;;;;;21.15;64.49;99110.97;4929219;29;20413;-68
2021/06/15 04:09:51;;;;;;;23.88;10.00;;;;;;;21.25;64.28;99122.31;4923630;29;20052;-67
2021/06/15 04:12:19;;;;;;;29.70;9.68;;;;;;;21.37;63.87;99112.25;4923163;29;20058;-68
2021/06/15 04:14:47;;;;;;;28.98;9.95;;;;;;;21.39;64.36;99113.50;4921791;29;20620;-68
2021/06/15 04:17:16;;;;;;;20.50;9.88;;;;;;;21.41;64.00;99115.91;4929578;29;20047;-68
2021/06/15 04:19:45;;;;;;;21.13;9.68;;;;;;;21.41;64.17;99112.34;4923549;29;20048;-68
2021/06/15 04:22:14;;;;;;;21.05;11.90;;;;;;;21.43;63.80;99110.78;4920596;29;20182;-68
2021/06/15 04:24:49;;;;;;;21.05;10.55;;;;;;;21.53;63.92;99115.75;4922813;29;20036;-68
2021/06/15 04:27:20;;;;;;;24.25;10.10;;;;;;;21.55;63.94;99123.75;4928019;29;20048;-68
2021/06/15 04:29:47;;;;;;;17.88;11.35;;;;;;;21.56;64.37;99113.41;4921963;29;20134;-68
2021/06/15 04:32:17;;;;;;;32.75;11.82;;;;;;;21.56;64.37;99124.53;4923520;29;20051;-67
2021/06/15 04:34:48;;;;;;;24.70;11.05;;;;;;;21.57;64.56;99110.28;4923331;29;20994;-66
2021/06/15 04:37:18;;;;;;;20.27;11.23;;;;;;;21.70;64.31;99116.53;4927136;29;20044;-67
2021/06/15 04:39:48;;;;;;;38.42;13.30;;;;;;;21.67;64.10;99120.84;4922484;29;20241;-68
2021/06/15 04:42:23;;;;;;;25.17;12.77;;;;;;;21.73;63.87;99113.00;4922268;29;20523;-69
2021/06/15 04:44:51;;;;;;;25.50;12.60;;;;;;;21.87;63.69;99117.22;4928920;29;20051;-68
2021/06/15 04:47:23;;;;;;;27.80;13.40;;;;;;;21.92;63.50;99114.16;4922671;29;20158;-68
2021/06/15 04:49:55;;;;;;;28.70;13.95;;;;;;;21.89;63.17;99112.91;4922704;29;20044;-68
2021/06/15 04:52:25;;;;;;;21.80;13.35;;;;;;;21.89;63.70;99114.88;4921439;29;20048;-68
2021/06/15 04:54:53;;;;;;;26.17;13.23;;;;;;;21.68;63.47;99111.31;4922694;29;20150;-68
2021/06/15 04:57:24;;;;;;;27.15;13.88;;;;;;;21.46;64.98;99118.38;4922656;29;20563;-66
2021/06/15 04:59:53;;;;;;;26.20;12.98;;;;;;;21.49;64.92;99112.13;4922681;29;20058;-70
2021/06/15 05:02:21;;;;;;;28.58;14.13;;;;;;;21.49;64.52;99125.19;4937044;29;20389;-68
2021/06/15 05:04:50;;;;;;;32.45;14.88;;;;;;;21.44;64.49;99119.94;4923158;29;20099;-69
2021/06/15 05:07:20;;;;;;;25.73;13.77;;;;;;;21.49;64.88;99128.78;4922830;29;20059;-68
2021/06/15 05:09:52;;;;;;;36.42;13.85;;;;;;;21.52;64.90;99110.56;4922897;29;20054;-69
2021/06/15 05:12:20;;;;;;;35.75;14.70;;;;;;;21.59;64.88;99115.47;4922010;29;20142;-67
2021/06/15 05:14:49;;;;;;;29.10;14.13;;;;;;;21.64;64.76;99113.19;4921746;29;20078;-68
2021/06/15 05:17:20;;;;;;;32.13;14.82;;;;;;;21.65;64.77;99109.28;4922853;29;20504;-68
2021/06/15 05:19:47;;;;;;;41.65;15.40;;;;;;;21.71;64.37;99112.56;4923087;29;20141;-68
2021/06/15 05:22:24;;;;;;;30.25;15.48;;;;;;;21.77;64.21;99107.50;4921724;29;20107;-68
2021/06/15 05:24:52;;;;;;;41.85;25.55;;;;;;;21.75;64.64;99104.28;4922396;29;20044;-69
2021/06/15 05:27:20;;;;;;;41.25;21.05;;;;;;;21.77;64.53;99110.28;4923239;29;20131;-69
2021/06/15 05:29:49;;;;;;;33.08;15.52;;;;;;;21.81;64.05;99109.19;4923149;29;20073;-68
2021/06/15 05:32:16;;;;;;;37.85;19.08;;;;;;;21.84;64.37;99109.63;4922075;29;20064;-67
2021/06/15 05:34:42;;;;;;;32.72;15.73;;;;;;;21.91;63.98;99106.97;4922009;29;20059;-67
2021/06/15 05:37:10;;;;;;;29.90;13.48;;;;;;;21.96;63.97;99104.69;4923467;29;20048;-68
2021/06/15 05:39:37;;;;;;;35.05;14.60;;;;;;;22.04;63.49;99108.41;4922959;29;20052;-68
2021/06/15 05:42:06;;;;;;;27.77;14.27;;;;;;;22.10;63.28;99106.94;4921331;29;20062;-68
2021/06/15 05:44:33;;;;;;;28.27;13.02;;;;;;;22.11;62.92;99099.41;4922066;29;20513;-68
2021/06/15 05:46:59;;;;;;;40.42;22.40;;;;;;;22.04;63.66;99102.06;4922398;29;20131;-68
2021/06/15 05:49:25;;;;;;;29.83;18.30;;;;;;;22.03;63.04;99098.47;4922512;29;20060;-69
2021/06/15 05:51:57;;;;;;;34.17;13.75;;;;;;;22.08;62.64;99097.34;4928630;29;20040;-69
2021/06/15 05:54:23;;;;;;;30.33;13.05;;;;;;;22.22;62.14;99091.22;4921316;28;20048;-68
2021/06/15 05:56:50;;;;;;;24.53;13.20;;;;;;;22.31;62.35;99104.91;4921335;29;20079;-66
2021/06/15 05:59:17;;;;;;;30.33;14.82;;;;;;;22.32;62.24;99093.41;4922447;29;20457;-70
2021/06/15 06:01:44;;;;;;;24.90;12.73;;;;;;;22.39;61.43;99096.28;4924718;29;20052;-70
2021/06/15 06:04:12;;;;;;;29.70;12.60;;;;;;;22.44;61.08;99097.97;4924438;29;20119;-70
2021/06/15 06:09:24;;;;;;;24.02;12.93;;;;;;;22.50;60.70;99092.91;4925973;29;20055;-69
2021/06/15 06:11:51;;;;;;;27.95;12.43;;;;;;;22.61;60.83;99088.34;4924799;29;20501;-67
2021/06/15 06:14:18;;;;;;;20.65;11.88;;;;;;;22.62;59.75;99091.91;4924769;29;20044;-69
2021/06/15 06:16:48;;;;;;;22.70;11.10;;;;;;;22.51;60.28;99088.94;4924444;29;20052;-70
2021/06/15 06:19:16;;;;;;;28.35;11.88;;;;;;;22.59;60.06;99087.91;4906759;29;20616;-69
2021/06/15 06:21:43;;;;;;;17.67;10.35;;;;;;;22.74;59.61;99082.56;4924466;29;20146;-70
2021/06/15 06:24:13;;;;;;;24.90;11.43;;;;;;;22.71;59.22;99086.06;4925471;29;20056;-69
2021/06/15 06:26:39;;;;;;;30.00;10.57;;;;;;;22.76;58.70;99083.78;4924793;29;20059;-69
2021/06/15 06:29:06;;;;;;;19.33;11.05;;;;;;;22.79;58.93;99083.03;4924398;29;20079;-68
2021/06/15 06:31:34;;;;;;;24.95;9.93;;;;;;;22.93;58.71;99076.03;4923546;29;20576;-69
2021/06/15 06:34:00;;;;;;;18.77;8.10;;;;;;;22.93;57.09;99068.50;4925006;29;20116;-69
2021/06/15 06:36:27;;;;;;;19.65;10.30;;;;;;;22.70;58.56;99074.13;4929674;29;20131;-68
2021/06/15 06:38:54;;;;;;;19.20;10.50;;;;;;;22.75;58.50;99073.81;4924179;29;20055;-69
2021/06/15 06:41:20;;;;;;;22.93;10.47;;;;;;;22.86;58.83;99064.81;4924875;29;20048;-70
2021/06/15 06:43:50;;;;;;;19.98;9.70;;;;;;;22.89;58.30;99072.41;4924492;29;20055;-69
2021/06/15 06:46:16;;;;;;;25.30;9.85;;;;;;;23.00;58.08;99070.59;4920199;29;20611;-68
2021/06/15 06:48:44;;;;;;;16.03;10.07;;;;;;;23.01;58.55;99071.38;4924284;29;20058;-69
2021/06/15 06:51:10;;;;;;;18.88;9.77;;;;;;;23.02;58.29;99065.44;4923861;29;20079;-68
2021/06/15 06:53:37;;;;;;;19.48;10.02;;;;;;;23.14;57.81;99069.19;4922735;29;20048;-69
2021/06/15 06:56:05;;;;;;;18.80;8.77;;;;;;;23.26;57.13;99065.34;4924190;29;20393;-69
2021/06/15 06:58:31;;;;;;;21.92;8.77;;;;;;;23.39;56.94;99069.53;4924291;29;20469;-69
2021/06/15 07:00:57;;;;;;;23.23;8.43;;;;;;;23.40;56.30;99061.94;4923259;29;20410;-68
2021/06/15 07:03:24;;;;;;;19.92;8.20;;;;;;;23.50;56.36;99058.50;4925015;29;20054;-69
2021/06/15 07:05:52;;;;;;;16.50;7.95;;;;;;;23.63;56.01;99061.81;4938680;29;20501;-69
2021/06/15 07:08:22;;;;;;;23.00;8.18;;;;;;;23.69;55.84;99060.31;4924067;29;20135;-69
2021/06/15 07:10:48;;;;;;;16.52;10.00;;;;;;;23.70;55.15;99066.66;4922994;29;20048;-68
2021/06/15 07:13:14;;;;;;;18.92;7.85;;;;;;;23.67;55.07;99064.66;4922595;29;20059;-68
2021/06/15 07:15:41;;;;;;;20.70;9.03;;;;;;;23.75;54.38;99061.56;4922506;29;20066;-68
2021/06/15 07:18:07;;;;;;;15.25;7.18;;;;;;;23.83;54.69;99059.63;4924439;29;20524;-69
2021/06/15 07:20:34;;;;;;;15.80;7.00;;;;;;;23.92;53.91;99062.13;4924656;28;20048;-68
2021/06/15 07:23:01;;;;;;;22.95;6.75;;;;;;;23.98;54.11;99049.44;4923016;29;20059;-68
2021/06/15 07:25:31;;;;;;;17.95;7.18;;;;;;;24.06;53.43;99053.91;4931312;29;20051;-69
2021/06/15 07:27:58;;;;;;;16.95;7.25;;;;;;;24.20;53.15;99055.22;4924319;29;20054;-68
2021/06/15 07:30:26;;;;;;;13.77;6.63;;;;;;;24.33;52.32;99047.34;4922878;29;20055;-69
2021/06/15 07:32:57;;;;;;;17.52;6.82;;;;;;;24.44;52.62;99053.03;4922803;29;20044;-69
2021/06/15 07:35:24;;;;;;;15.80;7.43;;;;;;;24.47;52.59;99047.47;4924287;29;20059;-69
2021/06/15 07:37:50;;;;;;;18.17;6.93;;;;;;;24.45;52.65;99035.88;4923970;29;20074;-67
2021/06/15 07:40:22;;;;;;;23.17;6.53;;;;;;;24.61;52.12;99048.75;4923032;29;20063;-69
2021/06/15 07:42:51;;;;;;;15.63;6.35;;;;;;;24.47;50.55;99047.47;4922686;29;20504;-68
2021/06/15 07:45:17;;;;;;;10.98;6.15;;;;;;;24.72;51.25;99038.44;4923944;29;20048;-68
2021/06/15 07:47:44;;;;;;;16.55;6.45;;;;;;;24.89;50.69;99030.59;4923546;29;20055;-70
2021/06/15 07:50:12;;;;;;;28.23;6.70;;;;;;;25.08;50.40;99032.28;4921505;29;20405;-68
2021/06/15 07:52:38;;;;;;;26.20;6.35;;;;;;;25.27;50.08;99027.56;4923849;29;20067;-69
2021/06/15 07:55:06;;;;;;;21.17;6.15;;;;;;;25.45;49.77;99024.84;4923935;29;20059;-68
2021/06/15 07:57:34;;;;;;;13.30;6.63;;;;;;;25.58;49.54;99017.69;4923066;29;20511;-68
2021/06/15 08:00:00;;;;;;;16.60;5.78;;;;;;;25.70;48.92;99012.91;4921978;29;20187;-67
2021/06/15 08:02:28;;;;;;;13.32;5.40;;;;;;;25.80;48.41;99011.34;4922783;29;20548;-68
2021/06/15 08:04:55;;;;;;;11.93;5.38;;;;;;;25.77;48.89;99012.94;4925690;29;20047;-66
2021/06/15 08:07:21;;;;;;;13.93;5.50;;;;;;;25.70;48.59;99012.91;4924094;29;20060;-66
2021/06/15 08:09:47;;;;;;;15.23;5.33;;;;;;;25.78;48.38;99011.75;4922108;28;20050;-67
2021/06/15 08:12:16;;;;;;;16.80;7.00;;;;;;;25.74;48.27;99011.72;4922633;29;20111;-66
2021/06/15 08:14:43;;;;;;;19.13;6.50;;;;;;;25.60;48.75;99006.91;4922546;29;20300;-66
2021/06/15 08:17:10;;;;;;;16.27;5.88;;;;;;;25.67;48.77;99013.72;4922817;29;20048;-66
2021/06/15 08:19:36;;;;;;;15.38;6.07;;;;;;;25.85;48.45;99008.16;4920233;29;20063;-68
2021/06/15 08:22:02;;;;;;;15.20;6.50;;;;;;;26.02;47.74;99010.16;4937024;29;20048;-67
2021/06/15 08:24:29;;;;;;;12.07;6.60;;;;;;;26.15;47.63;99004.16;4922607;29;20056;-67
2021/06/15 08:26:55;;;;;;;21.08;6.70;;;;;;;26.26;47.29;98998.59;4920366;29;20059;-67
2021/06/15 08:29:21;;;;;;;22.80;6.73;;;;;;;26.30;46.90;98989.00;4923925;29;20509;-66
2021/06/15 08:31:49;;;;;;;13.38;5.78;;;;;;;26.30;47.15;98993.78;4923267;29;20680;-66
2021/06/15 08:34:16;;;;;;;13.52;6.18;;;;;;;26.20;46.96;98989.78;4922927;29;20099;-66
2021/06/15 08:36:42;;;;;;;12.60;5.68;;;;;;;26.07;47.01;98994.97;4921928;29;20078;-66
2021/06/15 08:39:09;;;;;;;12.57;5.50;;;;;;;26.08;46.65;98998.56;4922591;29;20103;-66
2021/06/15 08:41:36;;;;;;;13.20;5.88;;;;;;;26.07;46.43;98988.56;4923428;29;20051;-66
2021/06/15 08:44:03;;;;;;;20.25;6.03;;;;;;;26.13;46.13;98982.16;4922871;29;20044;-67
2021/06/15 08:46:30;;;;;;;26.25;7.05;;;;;;;26.13;45.93;98986.94;4921451;29;20488;-66
2021/06/15 08:49:00;;;;;;;15.68;5.70;;;;;;;26.10;45.91;98979.34;4922115;29;20060;-66
2021/06/15 08:51:27;;;;;;;23.13;7.03;;;;;;;26.26;46.05;98979.75;4921816;29;20092;-66
2021/06/15 08:54:03;;;;;;;43.45;7.80;;;;;;;26.29;45.80;98972.56;4922758;29;20504;-66
2021/06/15 08:56:32;;;;;;;15.43;6.80;;;;;;;26.22;46.50;98966.97;4922960;29;20074;-66
2021/06/15 08:59:06;;;;;;;22.75;6.75;;;;;;;26.32;46.18;98971.75;4922928;29;20508;-66
2021/06/15 09:01:32;;;;;;;23.70;6.93;;;;;;;26.60;45.53;98978.50;4921860;29;20075;-66
2021/06/15 09:04:00;;;;;;;16.60;7.60;;;;;;;26.86;45.41;98968.84;4921324;29;20068;-67
2021/06/15 09:06:27;;;;;;;15.45;7.80;;;;;;;27.17;45.07;98969.13;4923272;29;20221;-68
2021/06/15 09:08:55;;;;;;;25.87;8.10;;;;;;;27.36;44.27;98967.00;4922316;29;20078;-69
2021/06/15 09:11:21;;;;;;;16.88;8.30;;;;;;;27.47;44.14;98961.31;4922986;29;20071;-70
2021/06/15 09:13:48;;;;;;;19.30;8.90;;;;;;;27.44;44.08;98953.72;4922308;29;20457;-66
2021/06/15 09:16:21;;;;;;;20.45;8.35;;;;;;;27.54;43.89;98950.09;4929523;29;20049;-67
2021/06/15 09:18:48;;;;;;;19.52;8.50;;;;;;;27.54;44.25;98941.66;4921769;29;20052;-68
2021/06/15 09:21:25;;;;;;;;;;;;;;;27.65;43.84;98946.41;4919359;29;20059;-68
2021/06/15 09:24:03;;;;;;;15.80;8.18;;;;;;;27.81;43.12;98952.31;4922799;29;20009;-68
2021/06/15 09:26:51;;;;;;;19.75;8.73;;;;;;;27.85;42.56;98941.84;4923618;29;20188;-69
2021/06/15 09:29:18;;;;;;;14.52;6.70;;;;;;;27.78;42.07;98943.91;4920245;28;20492;-67
2021/06/15 09:31:51;;;;;;;15.48;6.32;;;;;;;27.65;42.00;98938.78;4921525;29;20135;-67
2021/06/15 09:34:18;;;;;;;15.77;5.97;;;;;;;27.70;41.91;98934.75;4921831;29;20342;-66
2021/06/15 09:36:46;;;;;;;11.57;5.77;;;;;;;27.63;42.07;98938.41;4925564;29;20115;-66
2021/06/15 09:39:12;;;;;;;20.75;5.80;;;;;;;27.16;42.36;98938.66;4925032;29;20075;-66
2021/06/15 09:41:40;;;;;;;17.83;5.78;;;;;;;27.20;42.43;98933.84;4926518;29;20048;-65
2021/06/15 09:44:15;;;;;;;14.43;5.38;;;;;;;27.25;41.95;98919.38;4925968;29;20107;-66
2021/06/15 09:46:42;;;;;;;18.13;7.00;;;;;;;27.21;43.01;98923.41;4926409;29;20052;-65
2021/06/15 09:49:09;;;;;;;14.25;6.90;;;;;;;26.95;42.85;98900.31;4924801;29;20048;-67
2021/06/15 09:51:35;;;;;;;11.52;5.15;;;;;;;27.08;42.25;98917.47;4923501;29;20543;-65
2021/06/15 09:54:04;;;;;;;12.33;5.13;;;;;;;27.25;41.42;98918.59;4924999;28;20058;-66
2021/06/15 09:56:30;;;;;;;13.43;5.55;;;;;;;27.32;42.28;98919.34;4932893;29;20048;-66
2021/06/15 09:59:00;;;;;;;17.42;6.38;;;;;;;27.31;42.67;98905.72;4924261;29;20255;-66
2021/06/15 10:01:28;;;;;;;14.45;4.90;;;;;;;27.24;41.79;98909.38;4926136;29;20076;-66
2021/06/15 10:04:08;;;;;;;11.15;4.93;;;;;;;27.15;41.23;98909.00;4925509;29;20525;-66
2021/06/15 10:06:35;;;;;;;11.10;4.85;;;;;;;27.33;41.70;98911.72;4924830;29;20059;-66
2021/06/15 10:09:03;;;;;;;14.90;8.68;;;;;;;27.34;41.69;98898.50;4938584;29;20052;-66
2021/06/15 10:11:31;;;;;;;15.90;11.32;;;;;;;27.51;41.47;98905.97;4925834;29;20056;-66
2021/06/15 10:13:58;;;;;;;14.20;4.70;;;;;;;27.46;40.69;98900.78;4926055;29;20052;-65
2021/06/15 10:16:24;;;;;;;12.27;5.75;;;;;;;27.67;41.06;98896.28;4922502;29;20131;-65
2021/06/15 10:18:51;;;;;;;15.05;5.47;;;;;;;27.50;41.43;98881.13;4925567;29;20059;-66
2021/06/15 10:21:17;;;;;;;12.90;5.43;;;;;;;27.37;42.00;98880.84;4925790;29;20142;-65
2021/06/15 10:23:44;;;;;;;21.50;6.43;;;;;;;27.16;42.70;98888.97;4925464;29;20165;-67
2021/06/15 10:26:12;;;;;;;12.38;6.15;;;;;;;26.47;43.16;98886.47;4924785;29;20139;-67
2021/06/15 10:28:39;;;;;;;15.25;6.00;;;;;;;26.31;43.92;98880.53;4924995;29;20571;-66
2021/06/15 10:31:05;;;;;;;15.27;6.22;;;;;;;26.05;44.66;98894.56;4925190;29;20047;-67
2021/06/15 10:33:41;;;;;;;13.50;5.78;;;;;;;26.03;43.95;98880.16;4924181;29;20104;-67
2021/06/15 10:36:08;;;;;;;16.23;6.28;;;;;;;26.09;44.62;98880.56;4924862;29;20497;-65
2021/06/15 10:38:42;;;;;;;16.25;5.85;;;;;;;26.08;45.30;98878.13;4924865;29;20056;-67
2021/06/15 10:41:21;;;;;;;14.10;5.90;;;;;;;26.51;44.89;98874.44;4928303;29;20055;-64
2021/06/15 10:43:49;;;;;;;19.52;5.85;;;;;;;26.68;44.04;98870.75;4924308;29;20074;-68
2021/06/15 10:46:37;;;;;;;14.52;4.93;;;;;;;26.56;43.38;98877.63;4923351;29;20043;-69
2021/06/15 10:49:07;;;;;;;16.58;4.88;;;;;;;26.44;43.14;98858.47;4925236;29;20051;-69
2021/06/15 10:51:53;;;;;;;10.90;5.20;;;;;;;26.52;43.21;98867.63;4926062;29;20087;-69
2021/06/15 10:54:44;;;;;;;14.27;5.70;;;;;;;26.56;43.64;98868.44;4923935;29;20460;-69
2021/06/15 10:57:22;;;;;;;13.73;6.47;;;;;;;26.53;44.59;98861.63;4923491;29;20052;-69
2021/06/15 11:00:09;;;;;;;14.18;5.70;;;;;;;26.64;43.88;98855.97;4925593;29;20052;-69
2021/06/15 11:02:36;;;;;;;17.58;5.10;;;;;;;26.94;43.58;98854.66;4924486;29;20393;-67
2021/06/15 11:05:39;;;;;;;16.13;5.43;;;;;;;26.99;44.09;98854.22;4923651;29;20498;-67
2021/06/15 11:08:17;;;;;;;16.33;6.32;;;;;;;27.04;43.69;98851.00;4923892;29;20057;-68
2021/06/15 11:10:44;;;;;;;12.27;6.10;;;;;;;27.06;42.91;98841.38;4923100;29;20052;-68
2021/06/15 11:13:11;;;;;;;;;;;;;;;27.15;42.54;98847.31;4924574;29;20052;-68
2021/06/15 11:15:56;;;;;;;16.98;7.10;;;;;;;27.44;42.49;98841.47;4929618;29;19927;-68
2021/06/15 11:18:22;;;;;;;15.70;6.30;;;;;;;27.56;42.20;98835.41;4938208;28;20329;-70
2021/06/15 11:20:48;;;;;;;17.88;6.45;;;;;;;27.77;41.82;98830.78;4922660;29;20064;-71
2021/06/15 11:23:27;;;;;;;15.93;6.28;;;;;;;27.88;40.64;98831.47;4924699;29;20048;-69
2021/06/15 11:25:59;;;;;;;12.10;5.55;;;;;;;28.02;40.57;98819.31;4923451;28;20055;-69
2021/06/15 11:28:48;;;;;;;15.77;5.78;;;;;;;28.02;39.70;98816.50;4923000;29;20063;-69
2021/06/15 11:31:36;;;;;;;19.75;8.65;;;;;;;28.03;40.60;98811.69;4922954;29;20139;-68
2021/06/15 11:34:17;;;;;;;21.08;8.98;;;;;;;28.05;40.41;98814.09;4919249;29;20147;-68
2021/06/15 11:36:54;;;;;;;20.35;11.82;;;;;;;27.92;41.21;98816.59;4923949;29;20560;-69
2021/06/15 11:39:32;;;;;;;12.70;5.80;;;;;;;27.83;41.22;98814.28;4922727;29;20138;-69